Time;durP1;ratioP1;P1;durP2;ratioP2;P2;SDS_P1;SDS_P2;PMS_P1;PMS_P2;Temp;Humidity;BMP_temperature;BMP_pressure;BME280_temperature;BME280_humidity;BME280_pressure;Samples;Min_cycle;Max_cycle;Signal;HPM_P1;HPM_P2
2024/03/14 00:02:01;;;;;;;1.30;1.30;;;;;;;19.73;50.78;97558.28;5007769;28;20709;-25
2024/03/14 00:04:28;;;;;;;1.50;1.40;;;;;;;19.73;50.87;97553.19;5010042;28;20246;-25
2024/03/14 00:06:57;;;;;;;1.20;1.20;;;;;;;19.72;51.04;97554.00;5008170;28;20583;-26
2024/03/14 00:09:23;;;;;;;1.50;1.40;;;;;;;19.72;51.08;97552.31;5009430;28;20264;-26
2024/03/14 00:11:50;;;;;;;1.43;1.33;;;;;;;19.72;50.75;97554.84;5008367;28;20221;-25
2024/03/14 00:14:17;;;;;;;1.40;1.30;;;;;;;19.74;50.94;97557.47;5008741;28;20225;-25
2024/03/14 00:16:43;;;;;;;1.40;1.30;;;;;;;19.73;50.80;97551.50;5007017;28;20757;-25
2024/03/14 00:19:10;;;;;;;1.27;1.20;;;;;;;19.73;50.83;97554.06;5008530;28;20210;-25
2024/03/14 00:21:39;;;;;;;1.20;1.17;;;;;;;19.73;50.73;97548.09;5008520;28;20422;-25
2024/03/14 00:24:08;;;;;;;1.40;1.30;;;;;;;19.71;50.84;97542.06;5008647;28;20564;-26
2024/03/14 00:26:34;;;;;;;1.50;1.40;;;;;;;19.71;50.77;97540.38;5007422;28;20208;-25
2024/03/14 00:29:01;;;;;;;1.10;1.10;;;;;;;19.73;50.86;97543.00;5009421;28;20266;-25
2024/03/14 00:31:29;;;;;;;1.40;1.30;;;;;;;19.72;50.74;97537.00;5009535;28;20787;-26
2024/03/14 00:33:56;;;;;;;1.57;1.47;;;;;;;19.75;50.77;97546.47;5007399;28;20214;-26
2024/03/14 00:36:22;;;;;;;1.40;1.30;;;;;;;19.73;50.26;97543.00;5009378;28;20210;-25
2024/03/14 00:38:49;;;;;;;1.30;1.30;;;;;;;19.74;50.74;97534.50;5008239;28;20202;-25
2024/03/14 00:41:16;;;;;;;1.20;1.20;;;;;;;19.72;50.74;97534.47;5007827;28;20226;-34
2024/03/14 00:43:42;;;;;;;1.30;1.20;;;;;;;19.73;50.90;97530.25;5006943;28;20210;-25
2024/03/14 00:46:10;;;;;;;1.40;1.30;;;;;;;19.72;50.93;97525.97;5009414;28;20301;-25
2024/03/14 00:48:37;;;;;;;1.30;1.20;;;;;;;19.72;50.91;97526.81;5006953;28;20253;-25
2024/03/14 00:51:06;;;;;;;1.43;1.33;;;;;;;19.72;50.90;97529.34;5003812;28;20406;-29
2024/03/14 00:53:33;;;;;;;1.40;1.30;;;;;;;19.72;50.88;97529.34;5008799;28;20202;-25
2024/03/14 00:56:01;;;;;;;1.20;1.17;;;;;;;19.73;50.84;97527.69;5007177;28;20246;-31
2024/03/14 00:58:28;;;;;;;1.40;1.30;;;;;;;19.73;50.87;97532.78;5009593;28;20198;-25
2024/03/14 01:00:55;;;;;;;1.40;1.30;;;;;;;19.72;50.74;97524.25;5006836;28;20230;-29
2024/03/14 01:03:22;;;;;;;1.47;1.37;;;;;;;19.71;50.70;97524.19;5009571;28;20238;-25
2024/03/14 01:05:48;;;;;;;1.30;1.20;;;;;;;19.53;50.97;97495.50;5008775;28;20713;-25
2024/03/14 01:08:15;;;;;;;1.40;1.30;;;;;;;19.72;50.96;97524.25;5005918;28;20696;-26
2024/03/14 01:10:43;;;;;;;1.40;1.30;;;;;;;19.72;50.82;97523.41;5008503;28;20237;-26
2024/03/14 01:13:12;;;;;;;1.20;1.20;;;;;;;19.71;50.82;97522.53;5008595;28;20210;-25
2024/03/14 01:15:39;;;;;;;1.37;1.27;;;;;;;19.71;50.78;97514.00;5009678;28;20202;-25
2024/03/14 01:18:05;;;;;;;1.53;1.43;;;;;;;19.73;51.08;97514.94;5007049;28;20648;-25
2024/03/14 01:20:33;;;;;;;1.43;1.37;;;;;;;19.74;50.98;97506.47;5010467;28;20226;-25
2024/03/14 01:23:00;;;;;;;1.10;1.10;;;;;;;19.72;50.82;97511.50;5009977;28;20218;-25
2024/03/14 01:25:26;;;;;;;1.40;1.30;;;;;;;19.73;50.88;97513.28;5010517;28;20206;-27
2024/03/14 01:27:53;;;;;;;1.43;1.33;;;;;;;19.74;50.73;97509.00;5012414;28;20237;-26
2024/03/14 01:30:21;;;;;;;1.63;1.50;;;;;;;19.74;50.96;97503.91;5011176;28;20287;-25
2024/03/14 01:32:49;;;;;;;1.30;1.30;;;;;;;19.73;51.02;97505.63;5010274;28;20578;-30
2024/03/14 01:35:16;;;;;;;1.13;1.13;;;;;;;19.73;50.51;97495.41;5012050;28;20221;-25
2024/03/14 01:37:43;;;;;;;1.40;1.30;;;;;;;19.72;50.84;97493.66;5012467;28;20260;-25
2024/03/14 01:40:13;;;;;;;1.30;1.27;;;;;;;19.73;50.84;97497.09;5010820;28;20233;-25
2024/03/14 01:42:43;;;;;;;1.20;1.20;;;;;;;19.68;50.83;97490.94;5012307;28;20242;-26
2024/03/14 01:45:10;;;;;;;1.43;1.33;;;;;;;19.73;50.86;97494.53;5011002;28;20585;-25
2024/03/14 01:47:37;;;;;;;1.30;1.20;;;;;;;19.70;50.86;97487.66;5010784;28;20737;-25
2024/03/14 01:50:05;;;;;;;1.30;1.30;;;;;;;19.72;50.79;97488.56;5009874;28;20215;-25
2024/03/14 01:52:35;;;;;;;1.20;1.20;;;;;;;19.73;50.70;97484.34;5011932;28;20716;-29
2024/03/14 01:55:05;;;;;;;1.33;1.23;;;;;;;19.72;50.85;97486.00;5008242;28;20692;-25
2024/03/14 01:57:31;;;;;;;1.43;1.33;;;;;;;19.72;50.88;97482.63;5006607;28;20696;-26
2024/03/14 01:59:58;;;;;;;1.27;1.20;;;;;;;19.72;50.74;97488.56;5007117;28;20198;-25
2024/03/14 02:02:25;;;;;;;1.33;1.23;;;;;;;19.72;50.72;97487.72;5009247;28;20281;-28
2024/03/14 02:05:10;;;;;;;1.60;1.50;;;;;;;19.73;50.91;97480.13;5009584;28;20205;-26
2024/03/14 02:07:40;;;;;;;1.40;1.30;;;;;;;19.73;50.99;97481.78;5010619;28;20198;-25
2024/03/14 02:10:08;;;;;;;1.40;1.30;;;;;;;19.73;50.84;97482.66;5009519;28;20252;-25
2024/03/14 02:12:34;;;;;;;1.37;1.27;;;;;;;19.73;50.91;97482.66;5010308;28;20203;-25
2024/03/14 02:15:02;;;;;;;1.50;1.40;;;;;;;19.73;50.94;97481.78;5011444;28;20333;-27
2024/03/14 02:17:30;;;;;;;1.20;1.20;;;;;;;19.72;50.82;97477.50;5009621;28;20206;-26
2024/03/14 02:19:56;;;;;;;1.10;1.10;;;;;;;19.73;50.73;97479.25;5010575;28;20217;-25
2024/03/14 02:22:23;;;;;;;1.37;1.30;;;;;;;19.72;50.76;97474.97;5010663;28;20681;-25
2024/03/14 02:24:53;;;;;;;1.43;1.33;;;;;;;19.72;50.74;97473.25;5009906;28;20199;-26
2024/03/14 02:27:20;;;;;;;1.20;1.10;;;;;;;19.72;50.83;97467.31;5011251;28;20198;-25
2024/03/14 02:29:46;;;;;;;1.30;1.20;;;;;;;19.72;50.73;97470.72;5010367;28;20229;-26
2024/03/14 02:32:13;;;;;;;1.20;1.20;;;;;;;19.73;50.64;97476.69;5009457;28;20309;-26
2024/03/14 02:34:40;;;;;;;1.47;1.37;;;;;;;19.72;50.71;97468.16;5011091;28;20226;-25
2024/03/14 02:37:07;;;;;;;1.10;1.10;;;;;;;19.73;50.83;97469.91;5008775;28;20237;-26
2024/03/14 02:39:34;;;;;;;1.40;1.30;;;;;;;19.71;50.82;97466.44;5011379;28;20230;-25
2024/03/14 02:42:00;;;;;;;1.37;1.27;;;;;;;19.72;50.75;97465.63;5008861;28;20284;-28
2024/03/14 02:44:27;;;;;;;1.27;1.20;;;;;;;19.72;50.84;97457.97;5007340;28;20221;-26
2024/03/14 02:46:54;;;;;;;1.50;1.40;;;;;;;19.73;50.80;97467.38;5011114;28;20214;-26
2024/03/14 02:49:21;;;;;;;1.20;1.20;;;;;;;19.74;50.74;97465.66;5009350;28;20222;-26
2024/03/14 02:51:47;;;;;;;1.40;1.30;;;;;;;19.75;50.98;97457.22;5005864;28;20229;-25
2024/03/14 02:54:17;;;;;;;1.27;1.20;;;;;;;19.76;50.88;97461.50;5010056;28;20305;-25
2024/03/14 02:56:49;;;;;;;1.20;1.20;;;;;;;19.74;50.93;97458.03;5010972;28;20198;-25
2024/03/14 02:59:17;;;;;;;1.40;1.30;;;;;;;19.74;51.00;97456.34;5011653;28;20638;-25
2024/03/14 03:01:43;;;;;;;1.50;1.40;;;;;;;19.73;50.76;97446.09;5009824;28;20226;-26
2024/03/14 03:04:10;;;;;;;1.13;1.13;;;;;;;19.72;50.74;97450.31;5010330;28;20194;-25
2024/03/14 03:06:44;;;;;;;1.50;1.40;;;;;;;19.73;50.79;97446.09;5006370;28;20194;-25
2024/03/14 03:09:11;;;;;;;1.20;1.20;;;;;;;19.72;50.75;97450.31;5005937;28;20230;-25
2024/03/14 03:11:38;;;;;;;1.20;1.20;;;;;;;19.73;50.83;97451.19;5011855;28;20214;-25
2024/03/14 03:14:07;;;;;;;1.50;1.40;;;;;;;19.73;50.74;97453.75;5013161;28;20206;-25
2024/03/14 03:16:34;;;;;;;1.47;1.37;;;;;;;19.70;50.68;97451.97;5012779;28;20297;-25
2024/03/14 03:19:01;;;;;;;1.20;1.20;;;;;;;19.66;50.92;97442.44;5006014;28;20627;-25
2024/03/14 03:21:28;;;;;;;1.27;1.27;;;;;;;19.74;50.90;97442.72;5008908;28;20716;-27
2024/03/14 03:23:54;;;;;;;1.30;1.30;;;;;;;19.72;50.79;97446.91;5011473;28;20202;-25
2024/03/14 03:26:21;;;;;;;1.20;1.20;;;;;;;19.72;50.84;97441.81;5010875;28;20657;-25
2024/03/14 03:28:49;;;;;;;1.40;1.30;;;;;;;19.72;50.75;97450.31;5007067;28;20744;-25
2024/03/14 03:31:15;;;;;;;1.13;1.13;;;;;;;19.73;50.83;97453.75;5011042;28;20253;-25
2024/03/14 03:33:42;;;;;;;1.40;1.30;;;;;;;19.73;50.63;97444.44;5008428;28;20249;-25
2024/03/14 03:36:09;;;;;;;1.60;1.50;;;;;;;19.74;50.62;97443.59;5009386;28;20221;-26
2024/03/14 03:38:40;;;;;;;1.20;1.20;;;;;;;19.75;50.80;97442.78;5010675;28;20198;-25
2024/03/14 03:41:06;;;;;;;1.30;1.20;;;;;;;19.72;50.85;97432.47;5012222;28;20246;-25
2024/03/14 03:43:33;;;;;;;1.20;1.20;;;;;;;19.74;50.72;97438.50;5010566;28;20233;-27
2024/03/14 03:45:59;;;;;;;1.30;1.30;;;;;;;19.75;50.53;97441.94;5004569;28;20230;-25
2024/03/14 03:48:26;;;;;;;1.27;1.27;;;;;;;19.73;50.82;97429.13;5009310;28;20892;-25
2024/03/14 03:50:52;;;;;;;1.47;1.37;;;;;;;19.73;50.75;97428.25;5006221;28;20221;-25
2024/03/14 03:53:19;;;;;;;1.20;1.20;;;;;;;19.72;50.88;97429.91;5026369;28;20198;-27
2024/03/14 03:55:46;;;;;;;1.30;1.30;;;;;;;19.74;50.65;97432.53;5006718;28;20727;-26
2024/03/14 03:58:12;;;;;;;1.50;1.40;;;;;;;19.73;50.80;97434.22;5006298;28;20220;-26
2024/03/14 04:00:43;;;;;;;1.10;1.10;;;;;;;19.73;50.76;97431.69;5005679;28;20253;-27
2024/03/14 04:03:16;;;;;;;1.20;1.20;;;;;;;19.73;50.74;97435.91;5009867;28;20202;-25
2024/03/14 04:05:43;;;;;;;1.20;1.20;;;;;;;19.73;50.84;97439.31;5008793;28;20206;-27
2024/03/14 04:08:10;;;;;;;1.47;1.37;;;;;;;19.73;50.84;97434.22;5007096;28;20325;-25
2024/03/14 04:10:36;;;;;;;1.10;1.10;;;;;;;19.70;50.80;97429.03;5005632;28;20225;-25
2024/03/14 04:13:04;;;;;;;1.20;1.20;;;;;;;19.72;50.75;97431.63;5007478;28;20202;-25
2024/03/14 04:15:33;;;;;;;1.40;1.30;;;;;;;19.72;50.91;97429.91;5009509;28;20282;-27
2024/03/14 04:18:01;;;;;;;1.40;1.30;;;;;;;19.71;50.84;97422.22;5006801;28;20205;-26
2024/03/14 04:20:27;;;;;;;1.10;1.10;;;;;;;19.73;50.75;97425.69;5009274;28;20836;-25
2024/03/14 04:22:58;;;;;;;1.30;1.20;;;;;;;19.75;50.73;97436.84;5010218;28;20265;-26
2024/03/14 04:25:24;;;;;;;1.43;1.30;;;;;;;19.74;51.12;97430.84;5009741;28;20198;-25
2024/03/14 04:27:51;;;;;;;1.40;1.30;;;;;;;19.74;50.69;97432.53;5007675;28;20224;-25
2024/03/14 04:30:21;;;;;;;1.40;1.30;;;;;;;19.73;50.84;97431.69;5008450;28;20753;-25
2024/03/14 04:32:48;;;;;;;1.17;1.17;;;;;;;19.74;50.67;97429.97;5008977;28;20202;-25
2024/03/14 04:35:17;;;;;;;1.50;1.40;;;;;;;19.73;50.65;97429.13;5008365;28;20265;-25
2024/03/14 04:37:47;;;;;;;1.33;1.23;;;;;;;19.73;50.84;97429.13;5002290;28;20214;-33
2024/03/14 04:40:13;;;;;;;1.27;1.23;;;;;;;19.73;50.34;97434.22;5006956;28;20214;-25
2024/03/14 04:42:40;;;;;;;1.10;1.10;;;;;;;19.73;50.72;97431.69;5005061;28;20297;-25
2024/03/14 04:45:09;;;;;;;1.40;1.30;;;;;;;19.72;50.89;97429.06;5008828;28;20206;-25
2024/03/14 04:47:39;;;;;;;1.30;1.30;;;;;;;19.74;50.81;97437.63;5006560;28;20202;-25
2024/03/14 04:50:10;;;;;;;1.30;1.30;;;;;;;19.73;50.90;97436.78;5001661;28;20756;-26
2024/03/14 04:52:36;;;;;;;1.40;1.30;;;;;;;19.73;50.89;97434.22;5006941;28;20199;-25
2024/03/14 04:55:05;;;;;;;1.40;1.30;;;;;;;19.68;50.81;97432.31;5011723;28;20202;-26
2024/03/14 04:57:34;;;;;;;1.60;1.50;;;;;;;19.73;50.85;97443.53;5010390;28;20343;-25
2024/03/14 05:00:04;;;;;;;1.30;1.30;;;;;;;19.75;50.68;97441.94;5010161;28;20221;-28
2024/03/14 05:02:31;;;;;;;2.13;1.40;;;;;;;19.77;50.70;97442.81;5009105;28;20198;-25
2024/03/14 05:04:57;;;;;;;1.40;1.30;;;;;;;19.78;50.87;97434.38;5015404;28;20198;-25
2024/03/14 05:07:25;;;;;;;1.50;1.40;;;;;;;19.79;50.79;97433.56;5010926;28;20314;-27
2024/03/14 05:09:54;;;;;;;1.40;1.30;;;;;;;19.79;50.78;97437.00;5014628;28;20340;-27
2024/03/14 05:12:20;;;;;;;1.50;1.40;;;;;;;19.79;50.73;97436.09;5009942;28;20665;-27
2024/03/14 05:14:47;;;;;;;1.43;1.33;;;;;;;19.79;50.81;97431.88;5008164;28;20245;-25
2024/03/14 05:17:14;;;;;;;1.60;1.50;;;;;;;19.78;50.86;97434.38;5012087;28;20210;-25
2024/03/14 05:19:41;;;;;;;1.50;1.40;;;;;;;19.78;50.84;97436.94;5014295;28;20210;-25
2024/03/14 05:22:07;;;;;;;1.73;1.30;;;;;;;19.78;50.75;97434.38;5012085;28;20231;-26
2024/03/14 05:24:36;;;;;;;1.70;1.60;;;;;;;19.77;50.81;97428.41;5012603;28;20226;-25
2024/03/14 05:27:02;;;;;;;1.73;1.63;;;;;;;19.77;50.77;97441.16;5013263;28;20256;-25
2024/03/14 05:29:29;;;;;;;1.60;1.50;;;;;;;19.77;50.89;97442.81;5011298;28;20309;-25
2024/03/14 05:31:56;;;;;;;1.57;1.47;;;;;;;19.76;50.87;97441.97;5011876;28;20510;-25
2024/03/14 05:34:22;;;;;;;1.60;1.50;;;;;;;19.77;50.86;97448.81;5012272;28;20206;-26
2024/03/14 05:36:49;;;;;;;1.50;1.40;;;;;;;19.75;51.28;97447.88;5011743;28;20202;-25
2024/03/14 05:39:16;;;;;;;1.70;1.60;;;;;;;19.75;50.93;97455.53;5010329;28;20284;-25
2024/03/14 05:41:43;;;;;;;1.60;1.50;;;;;;;19.75;50.79;97452.13;5013046;28;20229;-25
2024/03/14 05:44:09;;;;;;;1.40;1.30;;;;;;;19.75;50.76;97454.69;5012667;28;20234;-25
2024/03/14 05:46:36;;;;;;;1.80;1.70;;;;;;;19.76;50.98;97459.84;5014150;28;20206;-25
2024/03/14 05:49:03;;;;;;;3.03;1.77;;;;;;;19.76;50.84;97457.28;5012865;28;20225;-25
2024/03/14 05:51:29;;;;;;;1.70;1.60;;;;;;;19.76;50.93;97456.41;5011601;28;20214;-25
2024/03/14 05:53:56;;;;;;;1.50;1.40;;;;;;;19.76;50.80;97452.19;5014504;28;20214;-25
2024/03/14 05:56:23;;;;;;;1.70;1.60;;;;;;;19.75;50.84;97460.63;5011649;28;20541;-26
2024/03/14 05:58:50;;;;;;;1.73;1.63;;;;;;;19.75;50.93;97460.63;5008952;28;20718;-25
2024/03/14 06:01:17;;;;;;;1.70;1.60;;;;;;;19.75;50.85;97462.31;5011157;28;20234;-27
2024/03/14 06:03:45;;;;;;;1.90;1.80;;;;;;;19.74;51.10;97464.00;5014398;28;20248;-25
2024/03/14 06:06:13;;;;;;;2.10;2.00;;;;;;;19.73;50.54;97469.03;5007435;28;20229;-25
2024/03/14 06:08:42;;;;;;;2.50;2.30;;;;;;;19.73;50.75;97464.81;5013517;28;20256;-25
2024/03/14 06:11:09;;;;;;;2.67;2.47;;;;;;;19.70;50.80;97457.06;5013861;28;20256;-27
2024/03/14 06:13:35;;;;;;;3.00;2.80;;;;;;;19.73;50.91;97461.41;5013780;28;20202;-25
2024/03/14 06:16:02;;;;;;;2.70;2.50;;;;;;;19.74;50.74;97466.53;5011278;28;20705;-25
2024/03/14 06:18:29;;;;;;;3.77;2.67;;;;;;;19.74;50.42;97468.22;5013908;28;20198;-25
2024/03/14 06:20:55;;;;;;;2.90;2.70;;;;;;;19.74;50.74;97473.31;5012597;28;20221;-25
2024/03/14 06:23:22;;;;;;;3.00;2.80;;;;;;;19.73;50.56;97469.91;5007312;28;20728;-25
2024/03/14 06:25:50;;;;;;;2.97;2.77;;;;;;;19.74;50.73;97473.31;5012932;28;20249;-26
2024/03/14 06:28:17;;;;;;;2.90;2.70;;;;;;;19.68;50.65;97466.34;5005621;28;20577;-25
2024/03/14 06:30:47;;;;;;;3.30;3.10;;;;;;;19.75;50.59;97478.47;5010301;28;20329;-25
2024/03/14 06:33:14;;;;;;;3.00;2.80;;;;;;;19.75;50.67;97470.81;5009158;28;20198;-26
2024/03/14 06:35:41;;;;;;;3.53;3.20;;;;;;;19.76;50.70;97477.69;5010366;28;20203;-26
2024/03/14 06:38:07;;;;;;;3.03;2.83;;;;;;;19.76;50.70;97479.34;5006654;28;20309;-25
2024/03/14 06:40:34;;;;;;;3.00;2.80;;;;;;;19.76;50.72;97475.13;5009318;28;20276;-27
2024/03/14 06:43:00;;;;;;;3.07;2.87;;;;;;;19.71;50.76;97466.44;5012315;28;20629;-26
2024/03/14 06:45:27;;;;;;;3.27;2.97;;;;;;;19.76;50.67;97471.69;5012891;28;20851;-25
2024/03/14 06:47:54;;;;;;;2.70;2.50;;;;;;;19.76;50.75;97477.69;5005709;28;20205;-25
2024/03/14 06:50:22;;;;;;;2.70;2.50;;;;;;;19.76;50.65;97464.06;5009089;28;20249;-25
2024/03/14 06:52:49;;;;;;;3.10;2.83;;;;;;;19.76;50.81;97475.13;5013336;28;20202;-25
2024/03/14 06:55:16;;;;;;;2.57;2.37;;;;;;;19.74;50.42;97465.66;5002911;28;20725;-25
2024/03/14 06:57:45;;;;;;;3.37;3.17;;;;;;;19.74;50.73;97469.09;5012008;28;20198;-26
2024/03/14 07:00:12;;;;;;;4.43;3.90;;;;;;;19.75;50.70;97467.44;5012776;28;20232;-25
2024/03/14 07:02:44;;;;;;;4.90;4.20;;;;;;;19.73;50.95;97467.38;5010783;28;20257;-25
2024/03/14 07:05:14;;;;;;;7.00;4.80;;;;;;;19.75;50.79;97477.63;5013095;28;20198;-26
2024/03/14 07:07:44;;;;;;;6.17;4.97;;;;;;;19.75;50.98;97472.53;5012839;28;20198;-25
2024/03/14 07:10:14;;;;;;;5.10;4.60;;;;;;;19.75;51.02;97469.97;5012663;28;20540;-26
2024/03/14 07:12:48;;;;;;;4.87;4.47;;;;;;;19.75;51.02;97477.63;5018609;28;20219;-25
2024/03/14 07:15:17;;;;;;;6.80;4.83;;;;;;;19.74;50.65;97474.19;5012843;28;20233;-27
2024/03/14 07:17:45;;;;;;;5.27;4.77;;;;;;;19.73;50.76;97475.03;5012032;28;20195;-25
2024/03/14 07:20:24;;;;;;;4.73;4.33;;;;;;;19.73;50.81;97471.59;5009777;28;20636;-25
2024/03/14 07:22:50;;;;;;;4.70;3.80;;;;;;;19.74;50.77;97478.41;5012169;28;20238;-25
2024/03/14 07:25:17;;;;;;;4.10;3.80;;;;;;;19.73;50.96;97480.13;5012974;28;20206;-25
2024/03/14 07:27:45;;;;;;;4.30;3.90;;;;;;;19.73;50.85;97481.78;5012728;28;20234;-25
2024/03/14 07:30:19;;;;;;;4.50;3.80;;;;;;;19.73;50.93;97479.25;5010570;28;20334;-25
2024/03/14 07:32:46;;;;;;;4.10;3.80;;;;;;;19.73;50.75;97476.69;5012513;28;20241;-26
2024/03/14 07:35:13;;;;;;;4.27;3.87;;;;;;;19.74;50.76;97484.41;5013091;28;20238;-25
2024/03/14 07:37:44;;;;;;;5.60;3.93;;;;;;;19.75;50.91;97478.47;5010283;28;20252;-27
2024/03/14 07:40:12;;;;;;;4.10;3.80;;;;;;;19.74;50.71;97481.84;5010049;28;20222;-26
2024/03/14 07:42:43;;;;;;;3.40;3.20;;;;;;;19.75;50.93;97477.63;5012461;28;20597;-26
2024/03/14 07:45:16;;;;;;;4.30;3.90;;;;;;;19.75;50.84;97477.63;5012538;28;20206;-25
2024/03/14 07:47:52;;;;;;;4.10;3.70;;;;;;;19.74;50.88;97479.28;5009869;28;20205;-25
2024/03/14 07:50:19;;;;;;;3.57;3.27;;;;;;;19.74;51.03;97475.88;5012060;28;20238;-25
2024/03/14 07:52:47;;;;;;;3.43;3.13;;;;;;;19.72;50.82;97480.91;5011991;28;20261;-25
2024/03/14 07:55:16;;;;;;;3.50;3.23;;;;;;;19.70;51.35;97479.13;5009701;28;20206;-25
2024/03/14 07:57:43;;;;;;;3.10;2.80;;;;;;;19.73;50.99;97490.31;5010243;28;20237;-25
2024/03/14 08:00:15;;;;;;;3.60;3.30;;;;;;;19.74;50.95;97492.03;5011936;28;20238;-25
2024/03/14 08:02:42;;;;;;;3.13;2.93;;;;;;;19.73;50.77;97487.78;5012500;28;20210;-25
2024/03/14 08:05:09;;;;;;;4.07;2.90;;;;;;;19.74;50.95;97486.06;5008231;28;20216;-25
2024/03/14 08:07:38;;;;;;;3.97;2.70;;;;;;;19.75;50.82;97488.66;5012201;28;20260;-26
2024/03/14 08:10:05;;;;;;;3.00;2.80;;;;;;;19.74;50.82;97486.06;5004512;28;20268;-25
2024/03/14 08:12:33;;;;;;;3.30;3.00;;;;;;;19.76;50.75;97490.44;5012333;28;20212;-25
2024/03/14 08:15:16;;;;;;;3.37;3.00;;;;;;;19.76;50.84;97499.75;5004952;28;20708;-26
2024/03/14 08:17:46;;;;;;;2.70;2.50;;;;;;;19.75;50.94;97492.94;5009628;28;20584;-25
2024/03/14 08:20:24;;;;;;;2.90;2.70;;;;;;;19.75;50.83;97493.78;5012264;28;20218;-25
2024/03/14 08:22:52;;;;;;;2.80;2.60;;;;;;;19.75;50.90;97485.28;5010978;28;20565;-25
2024/03/14 08:25:19;;;;;;;2.80;2.60;;;;;;;19.74;50.77;97492.03;5010043;28;20248;-25
2024/03/14 08:27:49;;;;;;;2.20;2.10;;;;;;;19.75;50.84;97492.94;5012028;28;20206;-25
2024/03/14 08:30:17;;;;;;;3.00;2.80;;;;;;;19.72;50.84;97496.22;5015757;28;20225;-25
2024/03/14 08:32:44;;;;;;;2.50;2.30;;;;;;;19.73;50.85;97500.53;5011876;28;20244;-26
2024/03/14 08:35:14;;;;;;;2.83;2.40;;;;;;;19.73;50.81;97495.41;5015988;28;20209;-26
2024/03/14 08:37:44;;;;;;;2.57;2.37;;;;;;;19.75;50.85;97495.47;5015865;28;20689;-26
2024/03/14 08:40:11;;;;;;;2.40;2.20;;;;;;;19.76;50.92;97494.66;5011619;28;20318;-25
2024/03/14 08:42:39;;;;;;;2.70;2.50;;;;;;;19.75;50.82;97491.22;5015929;28;20264;-25
2024/03/14 08:45:14;;;;;;;2.70;2.50;;;;;;;19.75;50.89;97487.81;5015681;28;20255;-25
2024/03/14 08:47:42;;;;;;;2.40;2.20;;;;;;;19.76;50.61;97494.66;5015946;28;20199;-28
2024/03/14 08:50:09;;;;;;;2.47;2.27;;;;;;;19.76;50.47;97494.66;5011714;28;20222;-26
2024/03/14 08:52:37;;;;;;;2.47;2.27;;;;;;;19.74;50.65;97493.72;5015869;28;20210;-25
2024/03/14 08:55:23;;;;;;;2.87;2.67;;;;;;;19.73;50.70;97489.44;5015752;28;20233;-26
2024/03/14 08:57:51;;;;;;;2.50;2.30;;;;;;;19.72;50.85;97491.09;5013517;28;20586;-27
2024/03/14 09:00:23;;;;;;;2.03;1.93;;;;;;;19.73;50.68;97492.88;5010535;28;20222;-26
2024/03/14 09:02:51;;;;;;;2.17;2.07;;;;;;;19.72;50.72;97492.81;5013091;28;20201;-25
2024/03/14 09:05:17;;;;;;;2.10;1.90;;;;;;;19.72;50.65;97490.25;5015388;28;20674;-25
2024/03/14 09:07:45;;;;;;;2.20;2.10;;;;;;;19.72;50.80;97492.81;5013270;28;20230;-26
2024/03/14 09:10:25;;;;;;;2.20;2.07;;;;;;;19.72;50.69;97496.22;5008261;28;20226;-25
2024/03/14 09:12:52;;;;;;;2.30;2.10;;;;;;;19.73;50.69;97499.63;5015461;28;20321;-27
2024/03/14 09:15:20;;;;;;;2.40;2.20;;;;;;;19.73;51.03;97497.97;5015625;28;20238;-25
2024/03/14 09:17:47;;;;;;;2.73;2.00;;;;;;;19.70;50.75;97489.34;5011489;28;20616;-25
2024/03/14 09:20:19;;;;;;;1.90;1.80;;;;;;;19.72;50.69;97498.75;5015075;28;20237;-26
2024/03/14 09:22:53;;;;;;;2.00;1.90;;;;;;;19.74;50.69;97501.38;5015065;28;20212;-25
2024/03/14 09:25:24;;;;;;;1.93;1.83;;;;;;;19.72;50.76;97491.09;5012432;28;20347;-25
2024/03/14 09:27:52;;;;;;;2.20;2.00;;;;;;;19.73;50.70;97504.75;5014973;28;20209;-25
2024/03/14 09:30:19;;;;;;;2.00;1.90;;;;;;;19.72;50.61;97498.75;5007436;28;20228;-29
2024/03/14 09:32:46;;;;;;;2.97;2.77;;;;;;;19.72;50.83;97496.22;5011620;28;20202;-29
2024/03/14 09:35:25;;;;;;;2.97;2.77;;;;;;;19.74;50.94;97506.47;5012519;28;20233;-25
2024/03/14 09:37:54;;;;;;;2.80;2.60;;;;;;;19.73;50.81;97494.53;5007176;28;20199;-25
2024/03/14 09:40:21;;;;;;;3.20;2.40;;;;;;;19.72;50.96;97496.22;5014535;28;20302;-25
2024/03/14 09:42:58;;;;;;;3.03;2.83;;;;;;;19.72;50.96;97496.22;5034313;28;20580;-25
2024/03/14 09:45:25;;;;;;;3.17;2.87;;;;;;;19.65;50.97;97480.63;5027903;28;20239;-25
2024/03/14 09:47:52;;;;;;;3.00;2.80;;;;;;;19.71;50.92;97489.38;5048352;28;20198;-25
2024/03/14 09:50:20;;;;;;;2.47;2.27;;;;;;;19.72;51.08;97496.22;5025879;28;20626;-25
2024/03/14 09:52:48;;;;;;;2.90;2.60;;;;;;;19.71;50.84;97481.75;5011074;28;20206;-26
2024/03/14 09:55:15;;;;;;;2.97;2.77;;;;;;;19.73;50.92;97490.31;5014223;28;20210;-25
2024/03/14 09:57:43;;;;;;;2.63;2.43;;;;;;;19.73;50.69;97477.56;5011073;28;20202;-25
2024/03/14 10:00:11;;;;;;;2.50;2.30;;;;;;;19.73;50.91;97482.66;5005523;28;20303;-25
2024/03/14 10:02:40;;;;;;;2.47;2.00;;;;;;;19.74;50.83;97478.41;5013086;28;20484;-25
2024/03/14 10:05:12;;;;;;;2.90;2.60;;;;;;;19.73;50.63;97472.47;5002503;28;20273;-31
2024/03/14 10:07:39;;;;;;;2.40;2.20;;;;;;;19.74;50.69;97475.88;5010759;28;20276;-25
2024/03/14 10:10:06;;;;;;;2.10;2.00;;;;;;;19.73;50.71;97475.03;5010267;28;20202;-27
2024/03/14 10:12:33;;;;;;;2.50;2.30;;;;;;;19.73;50.76;97472.47;5008642;28;20223;-27
2024/03/14 10:15:03;;;;;;;2.37;2.17;;;;;;;19.74;50.85;97483.50;5006105;28;20428;-25
2024/03/14 10:17:32;;;;;;;2.23;2.13;;;;;;;19.74;50.82;97481.84;5010792;28;20217;-25
2024/03/14 10:19:59;;;;;;;2.33;2.13;;;;;;;19.76;50.76;97477.69;5011175;28;20210;-25
2024/03/14 10:22:26;;;;;;;2.37;2.17;;;;;;;19.76;50.85;97475.13;5008886;28;20202;-28
2024/03/14 10:24:53;;;;;;;2.30;2.10;;;;;;;19.69;50.71;97462.13;5007354;28;20206;-26
2024/03/14 10:27:19;;;;;;;3.00;2.00;;;;;;;19.75;50.79;97468.28;5011381;28;20206;-25
2024/03/14 10:29:46;;;;;;;2.37;2.17;;;;;;;19.75;50.66;97470.81;5009188;28;20665;-25
2024/03/14 10:32:13;;;;;;;2.60;2.20;;;;;;;19.75;50.65;97463.16;5004607;28;20262;-26
2024/03/14 10:34:43;;;;;;;2.30;2.10;;;;;;;19.74;50.80;97466.53;5007632;28;20237;-25
2024/03/14 10:37:14;;;;;;;2.30;2.10;;;;;;;19.73;50.77;97457.16;5019406;28;20202;-27
2024/03/14 10:39:59;;;;;;;2.43;2.10;;;;;;;19.72;50.87;97457.97;5007408;28;20349;-25
2024/03/14 10:42:28;;;;;;;1.90;1.80;;;;;;;19.72;50.84;97457.13;5008671;28;20199;-26
2024/03/14 10:44:54;;;;;;;1.97;1.87;;;;;;;19.75;50.75;97463.16;5002735;28;20676;-25
2024/03/14 10:47:21;;;;;;;2.07;1.87;;;;;;;19.75;50.89;97459.78;5009638;28;20207;-25
2024/03/14 10:49:48;;;;;;;2.00;1.90;;;;;;;19.75;50.89;97458.06;5007075;28;20202;-28
2024/03/14 10:52:16;;;;;;;1.80;1.70;;;;;;;19.53;50.67;97416.47;5009286;28;20222;-25
2024/03/14 10:54:48;;;;;;;2.10;2.00;;;;;;;19.72;50.79;97449.47;5009938;28;20262;-25
2024/03/14 10:57:16;;;;;;;2.07;1.90;;;;;;;19.72;50.67;97439.28;5003473;28;20233;-26
2024/03/14 10:59:44;;;;;;;1.60;1.50;;;;;;;19.75;50.73;97439.38;5009152;28;20203;-25
2024/03/14 11:02:14;;;;;;;1.80;1.70;;;;;;;19.75;50.72;97441.94;5009318;28;20226;-25
2024/03/14 11:04:41;;;;;;;1.93;1.60;;;;;;;19.75;50.64;97434.28;5006511;28;20279;-25
2024/03/14 11:07:08;;;;;;;1.80;1.70;;;;;;;19.73;50.12;97430.81;5007542;28;20218;-25
2024/03/14 11:09:53;;;;;;;1.60;1.50;;;;;;;19.76;50.88;97433.44;5004157;28;20209;-26
2024/03/14 11:12:23;;;;;;;1.60;1.50;;;;;;;19.76;50.73;97428.34;4989898;28;20226;-25
2024/03/14 11:15:07;;;;;;;1.70;1.60;;;;;;;19.78;50.71;97431.84;5004882;28;20582;-25
2024/03/14 11:17:33;;;;;;;1.73;1.63;;;;;;;19.76;50.73;97428.34;5016096;28;20667;-25
2024/03/14 11:20:07;;;;;;;1.60;1.50;;;;;;;19.76;50.73;97419.03;4991680;28;20668;-25
2024/03/14 11:22:34;;;;;;;1.90;1.70;;;;;;;19.72;50.62;97412.06;5001375;28;20722;-25
2024/03/14 11:25:00;;;;;;;1.77;1.67;;;;;;;19.73;50.66;97410.41;5005594;28;20222;-26
2024/03/14 11:27:27;;;;;;;1.70;1.60;;;;;;;19.75;50.67;97414.72;4990561;28;20300;-26
2024/03/14 11:29:53;;;;;;;1.50;1.40;;;;;;;19.75;50.77;97416.44;5004882;28;20234;-26
2024/03/14 11:32:31;;;;;;;1.60;1.50;;;;;;;19.77;50.63;97409.69;5019749;28;20293;-25
2024/03/14 11:35:34;;;;;;;1.50;1.40;;;;;;;19.77;50.62;97409.69;5021621;28;20592;-27
2024/03/14 11:38:04;;;;;;;1.60;1.50;;;;;;;19.78;50.86;97398.69;5006556;28;20688;-28
2024/03/14 11:40:32;;;;;;;1.87;1.70;;;;;;;19.79;50.67;97395.31;5003669;28;20637;-25